sensor_id;sensor_type;location;lat;lon;timestamp;P1;durP1;ratioP1;P2;durP2;ratioP2
17596;SDS011;8917;50.942;6.946;2022-08-01T00:02:17;2.38;;;1.38;;
17596;SDS011;8917;50.942;6.946;2022-08-01T00:04:44;1.75;;;1.52;;
17596;SDS011;8917;50.942;6.946;2022-08-01T00:07:12;4.05;;;1.42;;
17596;SDS011;8917;50.942;6.946;2022-08-01T00:09:39;3.35;;;1.67;;
17596;SDS011;8917;50.942;6.946;2022-08-01T00:12:06;1.77;;;1.50;;
17596;SDS011;8917;50.942;6.946;2022-08-01T00:14:35;3.70;;;1.42;;
17596;SDS011;8917;50.942;6.946;2022-08-01T00:17:02;2.15;;;1.50;;
17596;SDS011;8917;50.942;6.946;2022-08-01T00:19:29;3.13;;;1.50;;
17596;SDS011;8917;50.942;6.946;2022-08-01T00:21:57;2.40;;;1.55;;
17596;SDS011;8917;50.942;6.946;2022-08-01T00:24:24;3.05;;;1.60;;
17596;SDS011;8917;50.942;6.946;2022-08-01T00:26:51;1.90;;;1.48;;
17596;SDS011;8917;50.942;6.946;2022-08-01T00:29:18;2.22;;;1.80;;
17596;SDS011;8917;50.942;6.946;2022-08-01T00:31:47;3.53;;;1.50;;
17596;SDS011;8917;50.942;6.946;2022-08-01T00:34:14;2.45;;;1.63;;
17596;SDS011;8917;50.942;6.946;2022-08-01T00:36:42;1.88;;;1.40;;
17596;SDS011;8917;50.942;6.946;2022-08-01T00:39:09;3.05;;;1.58;;
17596;SDS011;8917;50.942;6.946;2022-08-01T00:41:36;2.05;;;1.40;;
17596;SDS011;8917;50.942;6.946;2022-08-01T00:44:03;1.95;;;1.63;;
17596;SDS011;8917;50.942;6.946;2022-08-01T00:46:31;1.60;;;1.50;;
17596;SDS011;8917;50.942;6.946;2022-08-01T00:48:59;2.90;;;1.42;;
17596;SDS011;8917;50.942;6.946;2022-08-01T00:51:27;1.63;;;1.52;;
17596;SDS011;8917;50.942;6.946;2022-08-01T00:53:56;2.40;;;1.70;;
17596;SDS011;8917;50.942;6.946;2022-08-01T00:56:24;3.13;;;1.73;;
17596;SDS011;8917;50.942;6.946;2022-08-01T00:58:51;2.47;;;1.90;;
17596;SDS011;8917;50.942;6.946;2022-08-01T01:01:19;2.30;;;1.73;;
17596;SDS011;8917;50.942;6.946;2022-08-01T01:03:46;2.10;;;1.63;;
17596;SDS011;8917;50.942;6.946;2022-08-01T01:06:22;2.70;;;1.90;;
17596;SDS011;8917;50.942;6.946;2022-08-01T01:08:52;2.45;;;1.55;;
17596;SDS011;8917;50.942;6.946;2022-08-01T01:11:21;1.90;;;1.70;;
17596;SDS011;8917;50.942;6.946;2022-08-01T01:13:52;3.03;;;1.67;;
17596;SDS011;8917;50.942;6.946;2022-08-01T01:16:20;2.85;;;1.55;;
17596;SDS011;8917;50.942;6.946;2022-08-01T01:18:49;4.13;;;1.83;;
17596;SDS011;8917;50.942;6.946;2022-08-01T01:21:32;2.60;;;1.70;;
17596;SDS011;8917;50.942;6.946;2022-08-01T01:24:04;2.65;;;1.90;;
17596;SDS011;8917;50.942;6.946;2022-08-01T01:26:39;1.88;;;1.70;;
17596;SDS011;8917;50.942;6.946;2022-08-01T01:29:11;2.42;;;1.90;;
17596;SDS011;8917;50.942;6.946;2022-08-01T01:31:40;2.55;;;2.15;;
17596;SDS011;8917;50.942;6.946;2022-08-01T01:34:09;2.00;;;1.90;;
17596;SDS011;8917;50.942;6.946;2022-08-01T01:36:38;2.22;;;1.77;;
17596;SDS011;8917;50.942;6.946;2022-08-01T01:39:06;2.97;;;2.00;;
17596;SDS011;8917;50.942;6.946;2022-08-01T01:41:34;3.42;;;1.75;;
17596;SDS011;8917;50.942;6.946;2022-08-01T01:44:03;3.08;;;2.22;;
17596;SDS011;8917;50.942;6.946;2022-08-01T01:46:32;2.03;;;1.88;;
17596;SDS011;8917;50.942;6.946;2022-08-01T01:49:00;2.38;;;1.73;;
17596;SDS011;8917;50.942;6.946;2022-08-01T01:51:28;2.63;;;2.40;;
17596;SDS011;8917;50.942;6.946;2022-08-01T01:53:56;2.13;;;1.90;;
17596;SDS011;8917;50.942;6.946;2022-08-01T01:56:24;3.17;;;2.05;;
17596;SDS011;8917;50.942;6.946;2022-08-01T01:58:54;2.05;;;1.92;;
17596;SDS011;8917;50.942;6.946;2022-08-01T02:01:23;2.65;;;2.00;;
17596;SDS011;8917;50.942;6.946;2022-08-01T02:03:56;2.67;;;1.77;;
17596;SDS011;8917;50.942;6.946;2022-08-01T02:06:24;2.03;;;1.80;;
17596;SDS011;8917;50.942;6.946;2022-08-01T02:08:53;2.35;;;1.83;;
17596;SDS011;8917;50.942;6.946;2022-08-01T02:11:21;3.65;;;2.20;;
17596;SDS011;8917;50.942;6.946;2022-08-01T02:13:52;4.72;;;1.60;;
17596;SDS011;8917;50.942;6.946;2022-08-01T02:16:20;1.95;;;1.60;;
17596;SDS011;8917;50.942;6.946;2022-08-01T02:18:49;3.65;;;2.10;;
17596;SDS011;8917;50.942;6.946;2022-08-01T02:21:19;3.65;;;1.80;;
17596;SDS011;8917;50.942;6.946;2022-08-01T02:23:47;3.50;;;1.90;;
17596;SDS011;8917;50.942;6.946;2022-08-01T02:26:15;4.07;;;2.00;;
17596;SDS011;8917;50.942;6.946;2022-08-01T02:28:45;2.45;;;1.83;;
17596;SDS011;8917;50.942;6.946;2022-08-01T02:31:16;2.13;;;1.92;;
17596;SDS011;8917;50.942;6.946;2022-08-01T02:33:44;2.20;;;2.00;;
17596;SDS011;8917;50.942;6.946;2022-08-01T02:36:13;3.22;;;2.05;;
17596;SDS011;8917;50.942;6.946;2022-08-01T02:38:44;2.55;;;2.00;;
17596;SDS011;8917;50.942;6.946;2022-08-01T02:41:12;2.28;;;1.75;;
17596;SDS011;8917;50.942;6.946;2022-08-01T02:43:42;3.78;;;2.03;;
17596;SDS011;8917;50.942;6.946;2022-08-01T02:46:11;3.70;;;2.20;;
17596;SDS011;8917;50.942;6.946;2022-08-01T02:48:41;3.10;;;2.45;;
17596;SDS011;8917;50.942;6.946;2022-08-01T02:51:09;2.83;;;2.38;;
17596;SDS011;8917;50.942;6.946;2022-08-01T02:53:37;2.60;;;1.98;;
17596;SDS011;8917;50.942;6.946;2022-08-01T02:56:07;2.20;;;2.00;;
17596;SDS011;8917;50.942;6.946;2022-08-01T02:58:35;3.58;;;2.25;;
17596;SDS011;8917;50.942;6.946;2022-08-01T03:01:04;3.70;;;2.42;;
17596;SDS011;8917;50.942;6.946;2022-08-01T03:03:31;2.97;;;2.10;;
17596;SDS011;8917;50.942;6.946;2022-08-01T03:05:59;2.70;;;2.47;;
17596;SDS011;8917;50.942;6.946;2022-08-01T03:08:27;3.95;;;2.25;;
17596;SDS011;8917;50.942;6.946;2022-08-01T03:10:55;2.50;;;2.22;;
17596;SDS011;8917;50.942;6.946;2022-08-01T03:13:25;2.80;;;2.33;;
17596;SDS011;8917;50.942;6.946;2022-08-01T03:15:54;2.80;;;2.20;;
17596;SDS011;8917;50.942;6.946;2022-08-01T03:18:22;3.80;;;2.10;;
17596;SDS011;8917;50.942;6.946;2022-08-01T03:20:52;3.50;;;2.20;;
17596;SDS011;8917;50.942;6.946;2022-08-01T03:23:20;2.30;;;2.10;;
17596;SDS011;8917;50.942;6.946;2022-08-01T03:25:48;3.03;;;2.10;;
17596;SDS011;8917;50.942;6.946;2022-08-01T03:28:16;3.10;;;2.22;;
17596;SDS011;8917;50.942;6.946;2022-08-01T03:30:46;6.03;;;2.42;;
17596;SDS011;8917;50.942;6.946;2022-08-01T03:33:14;4.78;;;2.63;;
17596;SDS011;8917;50.942;6.946;2022-08-01T03:35:42;4.25;;;2.83;;
17596;SDS011;8917;50.942;6.946;2022-08-01T03:38:11;3.83;;;2.50;;
17596;SDS011;8917;50.942;6.946;2022-08-01T03:40:41;4.97;;;2.70;;
17596;SDS011;8917;50.942;6.946;2022-08-01T03:43:10;3.60;;;2.70;;
17596;SDS011;8917;50.942;6.946;2022-08-01T03:45:38;5.97;;;2.70;;
17596;SDS011;8917;50.942;6.946;2022-08-01T03:48:08;4.22;;;2.60;;
17596;SDS011;8917;50.942;6.946;2022-08-01T03:50:36;3.20;;;2.70;;
17596;SDS011;8917;50.942;6.946;2022-08-01T03:53:06;4.13;;;2.80;;
17596;SDS011;8917;50.942;6.946;2022-08-01T03:55:35;4.35;;;2.80;;
17596;SDS011;8917;50.942;6.946;2022-08-01T03:58:04;3.30;;;2.35;;
17596;SDS011;8917;50.942;6.946;2022-08-01T04:00:32;3.72;;;2.97;;
17596;SDS011;8917;50.942;6.946;2022-08-01T04:02:59;3.42;;;2.80;;
17596;SDS011;8917;50.942;6.946;2022-08-01T04:05:28;4.22;;;2.85;;
17596;SDS011;8917;50.942;6.946;2022-08-01T04:07:56;3.83;;;3.10;;
17596;SDS011;8917;50.942;6.946;2022-08-01T04:10:24;4.22;;;3.33;;
17596;SDS011;8917;50.942;6.946;2022-08-01T04:12:51;4.38;;;3.83;;
17596;SDS011;8917;50.942;6.946;2022-08-01T04:15:19;5.63;;;3.63;;
17596;SDS011;8917;50.942;6.946;2022-08-01T04:17:46;3.67;;;3.00;;
17596;SDS011;8917;50.942;6.946;2022-08-01T04:20:13;4.13;;;3.53;;
17596;SDS011;8917;50.942;6.946;2022-08-01T04:22:44;4.38;;;3.45;;
17596;SDS011;8917;50.942;6.946;2022-08-01T04:25:12;5.60;;;3.28;;
17596;SDS011;8917;50.942;6.946;2022-08-01T04:27:42;6.90;;;3.22;;
17596;SDS011;8917;50.942;6.946;2022-08-01T04:30:11;3.35;;;3.00;;
17596;SDS011;8917;50.942;6.946;2022-08-01T04:32:39;5.22;;;3.33;;
17596;SDS011;8917;50.942;6.946;2022-08-01T04:35:09;6.90;;;3.83;;
17596;SDS011;8917;50.942;6.946;2022-08-01T04:37:41;5.05;;;3.63;;
17596;SDS011;8917;50.942;6.946;2022-08-01T04:40:11;5.40;;;3.95;;
17596;SDS011;8917;50.942;6.946;2022-08-01T04:42:39;5.32;;;4.25;;
17596;SDS011;8917;50.942;6.946;2022-08-01T04:45:07;6.05;;;4.07;;
17596;SDS011;8917;50.942;6.946;2022-08-01T04:47:35;5.18;;;3.28;;
17596;SDS011;8917;50.942;6.946;2022-08-01T04:50:03;4.97;;;3.50;;
17596;SDS011;8917;50.942;6.946;2022-08-01T04:52:32;4.80;;;3.78;;
17596;SDS011;8917;50.942;6.946;2022-08-01T04:54:59;9.13;;;4.05;;
17596;SDS011;8917;50.942;6.946;2022-08-01T04:57:28;6.00;;;4.47;;
17596;SDS011;8917;50.942;6.946;2022-08-01T04:59:55;7.57;;;4.18;;
17596;SDS011;8917;50.942;6.946;2022-08-01T05:02:23;6.72;;;4.18;;
17596;SDS011;8917;50.942;6.946;2022-08-01T05:04:53;5.82;;;4.70;;
17596;SDS011;8917;50.942;6.946;2022-08-01T05:07:21;7.43;;;5.55;;
17596;SDS011;8917;50.942;6.946;2022-08-01T05:09:48;8.05;;;5.30;;
17596;SDS011;8917;50.942;6.946;2022-08-01T05:12:15;8.80;;;5.47;;
17596;SDS011;8917;50.942;6.946;2022-08-01T05:14:44;7.97;;;5.20;;
17596;SDS011;8917;50.942;6.946;2022-08-01T05:17:12;7.57;;;5.18;;
17596;SDS011;8917;50.942;6.946;2022-08-01T05:19:39;7.35;;;5.28;;
17596;SDS011;8917;50.942;6.946;2022-08-01T05:22:08;8.13;;;5.28;;
17596;SDS011;8917;50.942;6.946;2022-08-01T05:24:38;8.77;;;5.82;;
17596;SDS011;8917;50.942;6.946;2022-08-01T05:27:06;8.93;;;5.30;;
17596;SDS011;8917;50.942;6.946;2022-08-01T05:29:33;7.53;;;5.20;;
17596;SDS011;8917;50.942;6.946;2022-08-01T05:32:02;9.48;;;5.40;;
17596;SDS011;8917;50.942;6.946;2022-08-01T05:34:30;8.20;;;6.28;;
17596;SDS011;8917;50.942;6.946;2022-08-01T05:36:57;8.27;;;6.45;;
17596;SDS011;8917;50.942;6.946;2022-08-01T05:39:24;8.00;;;6.57;;
17596;SDS011;8917;50.942;6.946;2022-08-01T05:41:51;10.00;;;6.03;;
17596;SDS011;8917;50.942;6.946;2022-08-01T05:44:19;7.90;;;6.13;;
17596;SDS011;8917;50.942;6.946;2022-08-01T05:46:46;9.80;;;6.35;;
17596;SDS011;8917;50.942;6.946;2022-08-01T05:49:15;9.73;;;6.45;;
17596;SDS011;8917;50.942;6.946;2022-08-01T05:51:42;7.72;;;6.93;;
17596;SDS011;8917;50.942;6.946;2022-08-01T05:54:09;9.20;;;6.35;;
17596;SDS011;8917;50.942;6.946;2022-08-01T05:56:36;9.32;;;6.75;;
17596;SDS011;8917;50.942;6.946;2022-08-01T05:59:04;11.05;;;7.30;;
17596;SDS011;8917;50.942;6.946;2022-08-01T06:01:31;8.95;;;6.90;;
17596;SDS011;8917;50.942;6.946;2022-08-01T06:03:59;9.27;;;7.35;;
17596;SDS011;8917;50.942;6.946;2022-08-01T06:06:27;8.60;;;7.57;;
17596;SDS011;8917;50.942;6.946;2022-08-01T06:08:55;9.40;;;7.80;;
17596;SDS011;8917;50.942;6.946;2022-08-01T06:11:22;15.30;;;7.43;;
17596;SDS011;8917;50.942;6.946;2022-08-01T06:13:49;8.23;;;7.20;;
17596;SDS011;8917;50.942;6.946;2022-08-01T06:16:16;9.25;;;8.40;;
17596;SDS011;8917;50.942;6.946;2022-08-01T06:18:43;12.48;;;7.68;;
17596;SDS011;8917;50.942;6.946;2022-08-01T06:21:11;10.05;;;8.70;;
17596;SDS011;8917;50.942;6.946;2022-08-01T06:23:40;11.32;;;8.55;;
17596;SDS011;8917;50.942;6.946;2022-08-01T06:26:07;12.20;;;8.07;;
17596;SDS011;8917;50.942;6.946;2022-08-01T06:28:35;11.07;;;8.07;;
17596;SDS011;8917;50.942;6.946;2022-08-01T06:31:03;9.55;;;7.13;;
17596;SDS011;8917;50.942;6.946;2022-08-01T06:33:30;10.52;;;8.20;;
17596;SDS011;8917;50.942;6.946;2022-08-01T06:35:58;9.15;;;8.05;;
17596;SDS011;8917;50.942;6.946;2022-08-01T06:38:26;9.95;;;8.00;;
17596;SDS011;8917;50.942;6.946;2022-08-01T06:40:54;10.55;;;7.95;;
17596;SDS011;8917;50.942;6.946;2022-08-01T06:43:22;9.55;;;8.13;;
17596;SDS011;8917;50.942;6.946;2022-08-01T06:45:49;10.95;;;7.78;;
17596;SDS011;8917;50.942;6.946;2022-08-01T06:48:16;9.90;;;8.27;;
17596;SDS011;8917;50.942;6.946;2022-08-01T06:50:44;9.02;;;7.85;;
17596;SDS011;8917;50.942;6.946;2022-08-01T06:53:11;10.07;;;8.02;;
17596;SDS011;8917;50.942;6.946;2022-08-01T06:55:38;11.63;;;8.65;;
17596;SDS011;8917;50.942;6.946;2022-08-01T06:58:07;10.25;;;8.90;;
17596;SDS011;8917;50.942;6.946;2022-08-01T07:00:34;11.43;;;8.48;;
17596;SDS011;8917;50.942;6.946;2022-08-01T07:03:01;10.32;;;8.85;;
17596;SDS011;8917;50.942;6.946;2022-08-01T07:05:28;9.48;;;8.32;;
17596;SDS011;8917;50.942;6.946;2022-08-01T07:07:58;11.10;;;7.95;;
17596;SDS011;8917;50.942;6.946;2022-08-01T07:10:26;12.43;;;8.85;;
17596;SDS011;8917;50.942;6.946;2022-08-01T07:12:53;8.95;;;8.05;;
17596;SDS011;8917;50.942;6.946;2022-08-01T07:15:22;12.32;;;8.50;;
17596;SDS011;8917;50.942;6.946;2022-08-01T07:17:51;12.88;;;8.60;;
17596;SDS011;8917;50.942;6.946;2022-08-01T07:20:19;10.45;;;8.43;;
17596;SDS011;8917;50.942;6.946;2022-08-01T07:22:46;11.43;;;9.02;;
17596;SDS011;8917;50.942;6.946;2022-08-01T07:25:13;10.40;;;8.07;;
17596;SDS011;8917;50.942;6.946;2022-08-01T07:27:41;9.35;;;8.40;;
17596;SDS011;8917;50.942;6.946;2022-08-01T07:30:08;9.73;;;8.15;;
17596;SDS011;8917;50.942;6.946;2022-08-01T07:32:37;9.10;;;8.02;;
17596;SDS011;8917;50.942;6.946;2022-08-01T07:35:05;9.15;;;8.25;;
17596;SDS011;8917;50.942;6.946;2022-08-01T07:37:32;9.65;;;7.68;;
17596;SDS011;8917;50.942;6.946;2022-08-01T07:39:59;8.57;;;7.68;;
17596;SDS011;8917;50.942;6.946;2022-08-01T07:42:29;10.20;;;7.32;;
17596;SDS011;8917;50.942;6.946;2022-08-01T07:44:56;9.05;;;8.00;;
17596;SDS011;8917;50.942;6.946;2022-08-01T07:47:24;10.00;;;8.95;;
17596;SDS011;8917;50.942;6.946;2022-08-01T07:49:58;8.93;;;7.60;;
17596;SDS011;8917;50.942;6.946;2022-08-01T07:52:25;10.00;;;7.95;;
17596;SDS011;8917;50.942;6.946;2022-08-01T07:54:53;9.25;;;7.63;;
17596;SDS011;8917;50.942;6.946;2022-08-01T07:57:21;9.23;;;8.32;;
17596;SDS011;8917;50.942;6.946;2022-08-01T07:59:48;8.55;;;7.60;;
17596;SDS011;8917;50.942;6.946;2022-08-01T08:02:16;9.90;;;8.88;;
17596;SDS011;8917;50.942;6.946;2022-08-01T08:04:43;8.02;;;7.22;;
17596;SDS011;8917;50.942;6.946;2022-08-01T08:07:12;8.43;;;7.63;;
17596;SDS011;8917;50.942;6.946;2022-08-01T08:09:41;10.32;;;7.47;;
17596;SDS011;8917;50.942;6.946;2022-08-01T08:12:08;9.73;;;8.20;;
17596;SDS011;8917;50.942;6.946;2022-08-01T08:14:37;9.77;;;8.77;;
17596;SDS011;8917;50.942;6.946;2022-08-01T08:17:05;7.93;;;7.22;;
17596;SDS011;8917;50.942;6.946;2022-08-01T08:19:32;8.30;;;7.53;;
17596;SDS011;8917;50.942;6.946;2022-08-01T08:22:02;8.02;;;7.28;;
17596;SDS011;8917;50.942;6.946;2022-08-01T08:24:32;9.88;;;6.97;;
17596;SDS011;8917;50.942;6.946;2022-08-01T08:27:00;7.72;;;6.90;;
17596;SDS011;8917;50.942;6.946;2022-08-01T08:29:28;8.80;;;7.90;;
17596;SDS011;8917;50.942;6.946;2022-08-01T08:31:57;10.45;;;7.88;;
17596;SDS011;8917;50.942;6.946;2022-08-01T08:34:25;8.30;;;7.50;;
17596;SDS011;8917;50.942;6.946;2022-08-01T08:36:53;8.82;;;7.50;;
17596;SDS011;8917;50.942;6.946;2022-08-01T08:39:21;9.23;;;7.43;;
17596;SDS011;8917;50.942;6.946;2022-08-01T08:41:50;8.00;;;7.20;;
17596;SDS011;8917;50.942;6.946;2022-08-01T08:44:17;7.72;;;6.97;;
17596;SDS011;8917;50.942;6.946;2022-08-01T08:46:45;7.57;;;6.88;;
17596;SDS011;8917;50.942;6.946;2022-08-01T08:49:15;12.65;;;7.07;;
17596;SDS011;8917;50.942;6.946;2022-08-01T08:51:43;8.00;;;7.20;;
17596;SDS011;8917;50.942;6.946;2022-08-01T08:54:11;7.20;;;6.25;;
17596;SDS011;8917;50.942;6.946;2022-08-01T08:56:38;8.77;;;7.28;;
17596;SDS011;8917;50.942;6.946;2022-08-01T08:59:08;11.13;;;7.40;;
17596;SDS011;8917;50.942;6.946;2022-08-01T09:01:35;8.13;;;6.70;;
17596;SDS011;8917;50.942;6.946;2022-08-01T09:04:02;6.88;;;6.10;;
17596;SDS011;8917;50.942;6.946;2022-08-01T09:06:30;7.97;;;6.68;;
17596;SDS011;8917;50.942;6.946;2022-08-01T09:08:57;7.57;;;6.13;;
17596;SDS011;8917;50.942;6.946;2022-08-01T09:11:25;8.13;;;6.50;;
17596;SDS011;8917;50.942;6.946;2022-08-01T09:14:02;7.55;;;5.57;;
17596;SDS011;8917;50.942;6.946;2022-08-01T09:16:31;6.47;;;5.70;;
17596;SDS011;8917;50.942;6.946;2022-08-01T09:19:09;7.25;;;6.43;;
17596;SDS011;8917;50.942;6.946;2022-08-01T09:21:36;8.32;;;5.97;;
17596;SDS011;8917;50.942;6.946;2022-08-01T09:24:12;7.47;;;6.22;;
17596;SDS011;8917;50.942;6.946;2022-08-01T09:26:39;7.13;;;6.22;;
17596;SDS011;8917;50.942;6.946;2022-08-01T09:29:07;10.73;;;5.78;;
17596;SDS011;8917;50.942;6.946;2022-08-01T09:31:45;7.20;;;5.93;;
17596;SDS011;8917;50.942;6.946;2022-08-01T09:34:13;9.23;;;6.28;;
17596;SDS011;8917;50.942;6.946;2022-08-01T09:36:44;7.22;;;5.93;;
17596;SDS011;8917;50.942;6.946;2022-08-01T09:39:16;9.10;;;6.25;;
17596;SDS011;8917;50.942;6.946;2022-08-01T09:41:43;15.43;;;7.13;;
17596;SDS011;8917;50.942;6.946;2022-08-01T09:44:10;9.05;;;6.20;;
17596;SDS011;8917;50.942;6.946;2022-08-01T09:46:45;12.30;;;6.10;;
17596;SDS011;8917;50.942;6.946;2022-08-01T09:49:15;7.45;;;6.38;;
17596;SDS011;8917;50.942;6.946;2022-08-01T09:51:53;8.48;;;6.05;;
17596;SDS011;8917;50.942;6.946;2022-08-01T09:54:27;7.20;;;6.50;;
17596;SDS011;8917;50.942;6.946;2022-08-01T09:57:07;8.70;;;5.78;;
17596;SDS011;8917;50.942;6.946;2022-08-01T09:59:35;6.97;;;6.28;;
17596;SDS011;8917;50.942;6.946;2022-08-01T10:02:06;6.35;;;5.80;;
17596;SDS011;8917;50.942;6.946;2022-08-01T10:04:36;5.80;;;5.22;;
17596;SDS011;8917;50.942;6.946;2022-08-01T10:07:04;6.68;;;6.07;;
17596;SDS011;8917;50.942;6.946;2022-08-01T10:09:32;6.53;;;5.93;;
17596;SDS011;8917;50.942;6.946;2022-08-01T10:12:00;7.18;;;5.63;;
17596;SDS011;8917;50.942;6.946;2022-08-01T10:14:27;7.03;;;6.40;;
17596;SDS011;8917;50.942;6.946;2022-08-01T10:16:56;6.15;;;5.55;;
17596;SDS011;8917;50.942;6.946;2022-08-01T10:19:25;6.35;;;5.55;;
17596;SDS011;8917;50.942;6.946;2022-08-01T10:21:53;6.65;;;5.50;;
17596;SDS011;8917;50.942;6.946;2022-08-01T10:24:21;6.90;;;5.50;;
17596;SDS011;8917;50.942;6.946;2022-08-01T10:26:49;7.57;;;5.53;;
17596;SDS011;8917;50.942;6.946;2022-08-01T10:29:20;7.13;;;5.35;;
17596;SDS011;8917;50.942;6.946;2022-08-01T10:31:48;7.03;;;5.25;;
17596;SDS011;8917;50.942;6.946;2022-08-01T10:34:15;4.97;;;4.47;;
17596;SDS011;8917;50.942;6.946;2022-08-01T10:36:46;6.25;;;5.13;;
17596;SDS011;8917;50.942;6.946;2022-08-01T10:39:13;9.35;;;8.35;;
17596;SDS011;8917;50.942;6.946;2022-08-01T10:41:42;5.25;;;4.75;;
17596;SDS011;8917;50.942;6.946;2022-08-01T10:44:09;6.30;;;5.03;;
17596;SDS011;8917;50.942;6.946;2022-08-01T10:46:37;5.55;;;4.97;;
17596;SDS011;8917;50.942;6.946;2022-08-01T10:49:06;5.20;;;4.80;;
17596;SDS011;8917;50.942;6.946;2022-08-01T10:51:34;5.72;;;4.53;;
17596;SDS011;8917;50.942;6.946;2022-08-01T10:54:05;6.15;;;4.95;;
17596;SDS011;8917;50.942;6.946;2022-08-01T10:56:38;5.15;;;4.30;;
17596;SDS011;8917;50.942;6.946;2022-08-01T10:59:05;5.38;;;4.72;;
17596;SDS011;8917;50.942;6.946;2022-08-01T11:01:33;5.97;;;4.70;;
17596;SDS011;8917;50.942;6.946;2022-08-01T11:04:04;4.95;;;4.53;;
17596;SDS011;8917;50.942;6.946;2022-08-01T11:06:40;4.70;;;4.30;;
17596;SDS011;8917;50.942;6.946;2022-08-01T11:09:21;4.82;;;4.32;;
17596;SDS011;8917;50.942;6.946;2022-08-01T11:11:56;5.18;;;4.55;;
17596;SDS011;8917;50.942;6.946;2022-08-01T11:14:24;5.03;;;4.53;;
17596;SDS011;8917;50.942;6.946;2022-08-01T11:16:51;5.18;;;4.65;;
17596;SDS011;8917;50.942;6.946;2022-08-01T11:19:18;5.63;;;4.38;;
17596;SDS011;8917;50.942;6.946;2022-08-01T11:21:58;6.15;;;4.40;;
17596;SDS011;8917;50.942;6.946;2022-08-01T11:27:18;4.43;;;4.03;;
17596;SDS011;8917;50.942;6.946;2022-08-01T11:29:53;4.20;;;3.90;;
17596;SDS011;8917;50.942;6.946;2022-08-01T11:32:45;5.28;;;3.70;;
17596;SDS011;8917;50.942;6.946;2022-08-01T11:35:12;4.38;;;3.97;;
17596;SDS011;8917;50.942;6.946;2022-08-01T11:37:39;6.07;;;4.28;;
17596;SDS011;8917;50.942;6.946;2022-08-01T11:40:17;6.47;;;4.30;;
17596;SDS011;8917;50.942;6.946;2022-08-01T11:42:46;5.30;;;4.43;;
17596;SDS011;8917;50.942;6.946;2022-08-01T11:45:13;6.05;;;4.50;;
17596;SDS011;8917;50.942;6.946;2022-08-01T11:47:44;10.13;;;5.05;;
17596;SDS011;8917;50.942;6.946;2022-08-01T11:50:29;4.47;;;4.05;;
17596;SDS011;8917;50.942;6.946;2022-08-01T11:52:57;7.88;;;4.32;;
17596;SDS011;8917;50.942;6.946;2022-08-01T11:55:25;4.32;;;3.92;;
17596;SDS011;8917;50.942;6.946;2022-08-01T11:57:59;4.10;;;3.47;;
17596;SDS011;8917;50.942;6.946;2022-08-01T12:00:27;4.32;;;3.90;;
17596;SDS011;8917;50.942;6.946;2022-08-01T12:02:56;5.18;;;4.20;;
17596;SDS011;8917;50.942;6.946;2022-08-01T12:05:25;4.60;;;3.53;;
17596;SDS011;8917;50.942;6.946;2022-08-01T12:07:53;3.50;;;3.20;;
17596;SDS011;8917;50.942;6.946;2022-08-01T12:10:21;3.65;;;3.30;;
17596;SDS011;8917;50.942;6.946;2022-08-01T12:12:49;3.97;;;3.20;;
17596;SDS011;8917;50.942;6.946;2022-08-01T12:15:18;3.53;;;3.22;;
17596;SDS011;8917;50.942;6.946;2022-08-01T12:17:48;3.50;;;3.20;;
17596;SDS011;8917;50.942;6.946;2022-08-01T12:20:16;4.25;;;3.80;;
17596;SDS011;8917;50.942;6.946;2022-08-01T12:22:43;3.90;;;3.60;;
17596;SDS011;8917;50.942;6.946;2022-08-01T12:25:11;3.80;;;3.38;;
17596;SDS011;8917;50.942;6.946;2022-08-01T12:27:40;3.67;;;3.22;;
17596;SDS011;8917;50.942;6.946;2022-08-01T12:30:08;5.75;;;3.40;;
17596;SDS011;8917;50.942;6.946;2022-08-01T12:32:37;4.70;;;4.10;;
17596;SDS011;8917;50.942;6.946;2022-08-01T12:35:05;6.65;;;5.18;;
17596;SDS011;8917;50.942;6.946;2022-08-01T12:37:34;4.22;;;3.88;;
17596;SDS011;8917;50.942;6.946;2022-08-01T12:40:08;3.40;;;3.10;;
17596;SDS011;8917;50.942;6.946;2022-08-01T12:42:36;3.78;;;3.22;;
17596;SDS011;8917;50.942;6.946;2022-08-01T12:45:04;3.67;;;3.38;;
17596;SDS011;8917;50.942;6.946;2022-08-01T12:47:33;3.22;;;2.90;;
17596;SDS011;8917;50.942;6.946;2022-08-01T12:50:02;2.75;;;2.53;;
17596;SDS011;8917;50.942;6.946;2022-08-01T12:52:30;3.20;;;2.90;;
17596;SDS011;8917;50.942;6.946;2022-08-01T12:55:02;3.25;;;2.72;;
17596;SDS011;8917;50.942;6.946;2022-08-01T12:57:29;3.30;;;2.97;;
17596;SDS011;8917;50.942;6.946;2022-08-01T13:00:13;5.28;;;2.80;;
17596;SDS011;8917;50.942;6.946;2022-08-01T13:02:41;3.15;;;2.42;;
17596;SDS011;8917;50.942;6.946;2022-08-01T13:05:10;3.33;;;2.20;;
17596;SDS011;8917;50.942;6.946;2022-08-01T13:07:39;3.67;;;2.70;;
17596;SDS011;8917;50.942;6.946;2022-08-01T13:10:06;3.20;;;2.90;;
17596;SDS011;8917;50.942;6.946;2022-08-01T13:12:34;3.03;;;2.67;;
17596;SDS011;8917;50.942;6.946;2022-08-01T13:15:15;2.95;;;2.53;;
17596;SDS011;8917;50.942;6.946;2022-08-01T13:17:42;2.63;;;2.40;;
17596;SDS011;8917;50.942;6.946;2022-08-01T13:20:11;3.42;;;2.50;;
17596;SDS011;8917;50.942;6.946;2022-08-01T13:22:47;2.58;;;2.38;;
17596;SDS011;8917;50.942;6.946;2022-08-01T13:25:15;4.30;;;3.90;;
17596;SDS011;8917;50.942;6.946;2022-08-01T13:27:43;2.65;;;2.45;;
17596;SDS011;8917;50.942;6.946;2022-08-01T13:30:10;2.28;;;2.08;;
17596;SDS011;8917;50.942;6.946;2022-08-01T13:32:38;1.88;;;1.77;;
17596;SDS011;8917;50.942;6.946;2022-08-01T13:35:08;3.40;;;2.22;;
17596;SDS011;8917;50.942;6.946;2022-08-01T13:37:37;2.53;;;2.33;;
17596;SDS011;8917;50.942;6.946;2022-08-01T13:40:04;2.60;;;2.40;;
17596;SDS011;8917;50.942;6.946;2022-08-01T13:42:32;3.17;;;1.90;;
17596;SDS011;8917;50.942;6.946;2022-08-01T13:44:59;1.80;;;1.70;;
17596;SDS011;8917;50.942;6.946;2022-08-01T13:47:26;5.18;;;2.10;;
17596;SDS011;8917;50.942;6.946;2022-08-01T13:49:53;1.90;;;1.80;;
17596;SDS011;8917;50.942;6.946;2022-08-01T13:52:22;2.25;;;1.80;;
17596;SDS011;8917;50.942;6.946;2022-08-01T13:54:50;2.03;;;1.92;;
17596;SDS011;8917;50.942;6.946;2022-08-01T13:57:17;3.58;;;3.28;;
17596;SDS011;8917;50.942;6.946;2022-08-01T13:59:45;4.55;;;3.83;;
17596;SDS011;8917;50.942;6.946;2022-08-01T14:02:12;3.47;;;1.80;;
17596;SDS011;8917;50.942;6.946;2022-08-01T14:04:39;2.08;;;1.80;;
17596;SDS011;8917;50.942;6.946;2022-08-01T14:07:07;4.38;;;2.20;;
17596;SDS011;8917;50.942;6.946;2022-08-01T14:09:34;4.70;;;2.03;;
17596;SDS011;8917;50.942;6.946;2022-08-01T14:12:03;2.88;;;2.58;;
17596;SDS011;8917;50.942;6.946;2022-08-01T14:14:30;3.10;;;2.13;;
17596;SDS011;8917;50.942;6.946;2022-08-01T14:16:57;3.67;;;1.98;;
17596;SDS011;8917;50.942;6.946;2022-08-01T14:19:24;2.63;;;1.55;;
17596;SDS011;8917;50.942;6.946;2022-08-01T14:21:51;5.78;;;1.50;;
17596;SDS011;8917;50.942;6.946;2022-08-01T14:24:19;2.22;;;2.03;;
17596;SDS011;8917;50.942;6.946;2022-08-01T14:26:46;3.10;;;1.50;;
17596;SDS011;8917;50.942;6.946;2022-08-01T14:29:14;3.17;;;1.70;;
17596;SDS011;8917;50.942;6.946;2022-08-01T14:31:42;1.73;;;1.63;;
17596;SDS011;8917;50.942;6.946;2022-08-01T14:34:09;2.30;;;1.52;;
17596;SDS011;8917;50.942;6.946;2022-08-01T14:36:37;3.20;;;2.00;;
17596;SDS011;8917;50.942;6.946;2022-08-01T14:39:05;5.60;;;1.52;;
17596;SDS011;8917;50.942;6.946;2022-08-01T14:41:32;1.63;;;1.52;;
17596;SDS011;8917;50.942;6.946;2022-08-01T14:43:59;1.70;;;1.60;;
17596;SDS011;8917;50.942;6.946;2022-08-01T14:46:27;1.90;;;1.40;;
17596;SDS011;8917;50.942;6.946;2022-08-01T14:48:55;3.03;;;1.80;;
17596;SDS011;8917;50.942;6.946;2022-08-01T14:51:22;1.88;;;1.52;;
17596;SDS011;8917;50.942;6.946;2022-08-01T14:53:49;1.77;;;1.67;;
17596;SDS011;8917;50.942;6.946;2022-08-01T14:56:17;1.67;;;1.58;;
17596;SDS011;8917;50.942;6.946;2022-08-01T14:58:45;2.00;;;1.80;;
17596;SDS011;8917;50.942;6.946;2022-08-01T15:01:12;1.70;;;1.60;;
17596;SDS011;8917;50.942;6.946;2022-08-01T15:03:41;3.85;;;1.85;;
17596;SDS011;8917;50.942;6.946;2022-08-01T15:06:08;1.80;;;1.70;;
17596;SDS011;8917;50.942;6.946;2022-08-01T15:08:36;2.30;;;2.10;;
17596;SDS011;8917;50.942;6.946;2022-08-01T15:11:03;2.13;;;1.90;;
17596;SDS011;8917;50.942;6.946;2022-08-01T15:13:31;1.90;;;1.80;;